sensor_id;sensor_type;location;lat;lon;timestamp;pressure;altitude;pressure_sealevel;temperature;humidity
25420;BME280;13354;48.174;11.566;2022-11-13T00:01:53;96743.34;;;5.69;99.98
25420;BME280;13354;48.174;11.566;2022-11-13T00:04:19;96745.72;;;5.72;99.69
25420;BME280;13354;48.174;11.566;2022-11-13T00:06:44;96739.75;;;5.70;99.90
25420;BME280;13354;48.174;11.566;2022-11-13T00:09:12;96731.59;;;5.73;99.40
25420;BME280;13354;48.174;11.566;2022-11-13T00:11:37;96738.81;;;5.80;98.29
25420;BME280;13354;48.174;11.566;2022-11-13T00:14:03;96731.59;;;5.73;97.95
25420;BME280;13354;48.174;11.566;2022-11-13T00:16:28;96731.75;;;5.81;97.83
25420;BME280;13354;48.174;11.566;2022-11-13T00:18:54;96734.50;;;5.70;98.08
25420;BME280;13354;48.174;11.566;2022-11-13T00:21:21;96730.47;;;5.56;98.71
25420;BME280;13354;48.174;11.566;2022-11-13T00:23:48;96727.16;;;5.54;99.91
25420;BME280;13354;48.174;11.566;2022-11-13T00:26:16;96718.44;;;5.53;100.00
25420;BME280;13354;48.174;11.566;2022-11-13T00:28:42;96720.66;;;5.58;100.00
25420;BME280;13354;48.174;11.566;2022-11-13T00:31:12;96719.41;;;5.52;100.00
25420;BME280;13354;48.174;11.566;2022-11-13T00:33:38;96714.16;;;5.52;100.00
25420;BME280;13354;48.174;11.566;2022-11-13T00:36:18;96703.25;;;5.57;100.00
25420;BME280;13354;48.174;11.566;2022-11-13T00:38:44;96705.03;;;5.56;100.00
25420;BME280;13354;48.174;11.566;2022-11-13T00:41:09;96699.50;;;5.60;100.00
25420;BME280;13354;48.174;11.566;2022-11-13T00:43:35;96709.88;;;5.61;100.00
25420;BME280;13354;48.174;11.566;2022-11-13T00:46:00;96703.34;;;5.55;100.00
25420;BME280;13354;48.174;11.566;2022-11-13T00:48:26;96698.53;;;5.51;100.00
25420;BME280;13354;48.174;11.566;2022-11-13T00:50:51;96689.25;;;5.47;99.62
25420;BME280;13354;48.174;11.566;2022-11-13T00:53:17;96697.53;;;5.42;99.24
25420;BME280;13354;48.174;11.566;2022-11-13T00:55:43;96694.50;;;5.47;98.98
25420;BME280;13354;48.174;11.566;2022-11-13T00:58:10;96694.09;;;5.42;98.55
25420;BME280;13354;48.174;11.566;2022-11-13T01:00:35;96690.34;;;5.35;98.35
25420;BME280;13354;48.174;11.566;2022-11-13T01:03:01;96683.69;;;5.30;98.44
25420;BME280;13354;48.174;11.566;2022-11-13T01:05:26;96683.97;;;5.27;98.72
25420;BME280;13354;48.174;11.566;2022-11-13T01:07:53;96682.84;;;5.20;98.95
25420;BME280;13354;48.174;11.566;2022-11-13T01:10:19;96672.91;;;5.24;99.54
25420;BME280;13354;48.174;11.566;2022-11-13T01:12:44;96670.53;;;5.21;99.45
25420;BME280;13354;48.174;11.566;2022-11-13T01:15:09;96668.44;;;5.15;100.00
25420;BME280;13354;48.174;11.566;2022-11-13T01:17:35;96665.56;;;5.18;100.00
25420;BME280;13354;48.174;11.566;2022-11-13T01:20:00;96656.84;;;5.17;100.00
25420;BME280;13354;48.174;11.566;2022-11-13T01:22:26;96655.75;;;5.20;100.00
25420;BME280;13354;48.174;11.566;2022-11-13T01:24:51;96655.47;;;5.13;100.00
25420;BME280;13354;48.174;11.566;2022-11-13T01:27:17;96651.59;;;5.17;100.00
25420;BME280;13354;48.174;11.566;2022-11-13T01:29:42;96655.19;;;5.16;100.00
25420;BME280;13354;48.174;11.566;2022-11-13T01:32:07;96654.47;;;5.14;99.55
25420;BME280;13354;48.174;11.566;2022-11-13T01:34:33;96642.91;;;5.17;99.54
25420;BME280;13354;48.174;11.566;2022-11-13T01:36:58;96646.50;;;5.25;99.52
25420;BME280;13354;48.174;11.566;2022-11-13T01:39:24;96643.41;;;5.11;98.61
25420;BME280;13354;48.174;11.566;2022-11-13T01:41:49;96635.13;;;5.15;98.09
25420;BME280;13354;48.174;11.566;2022-11-13T01:44:16;96644.09;;;5.03;97.91
25420;BME280;13354;48.174;11.566;2022-11-13T01:46:51;96631.66;;;4.95;98.58
25420;BME280;13354;48.174;11.566;2022-11-13T01:49:33;96633.72;;;4.92;99.44
25420;BME280;13354;48.174;11.566;2022-11-13T01:52:07;96629.72;;;4.97;99.75
25420;BME280;13354;48.174;11.566;2022-11-13T01:54:38;96625.16;;;4.99;99.21
25420;BME280;13354;48.174;11.566;2022-11-13T01:57:05;96623.22;;;4.92;99.06
25420;BME280;13354;48.174;11.566;2022-11-13T01:59:38;96616.16;;;4.92;98.84
25420;BME280;13354;48.174;11.566;2022-11-13T02:02:04;96619.34;;;4.86;98.92
25420;BME280;13354;48.174;11.566;2022-11-13T02:04:30;96623.06;;;4.83;99.01
25420;BME280;13354;48.174;11.566;2022-11-13T02:06:59;96621.97;;;4.86;99.49
25420;BME280;13354;48.174;11.566;2022-11-13T02:09:35;96611.38;;;5.07;99.04
25420;BME280;13354;48.174;11.566;2022-11-13T02:12:02;96608.75;;;4.97;98.46
25420;BME280;13354;48.174;11.566;2022-11-13T02:14:30;96621.81;;;4.88;98.61
25420;BME280;13354;48.174;11.566;2022-11-13T02:16:58;96613.78;;;4.79;98.74
25420;BME280;13354;48.174;11.566;2022-11-13T02:19:29;96613.75;;;4.70;98.65
25420;BME280;13354;48.174;11.566;2022-11-13T02:22:17;96609.78;;;4.75;98.56
25420;BME280;13354;48.174;11.566;2022-11-13T02:24:44;96602.84;;;4.65;98.83
25420;BME280;13354;48.174;11.566;2022-11-13T02:27:22;96603.91;;;4.62;98.60
25420;BME280;13354;48.174;11.566;2022-11-13T02:29:50;96605.09;;;4.48;98.84
25420;BME280;13354;48.174;11.566;2022-11-13T02:32:15;96594.34;;;4.51;99.21
25420;BME280;13354;48.174;11.566;2022-11-13T02:34:40;96601.13;;;4.54;99.63
25420;BME280;13354;48.174;11.566;2022-11-13T02:37:06;96600.31;;;4.53;99.54
25420;BME280;13354;48.174;11.566;2022-11-13T02:39:31;96594.50;;;4.59;99.36
25420;BME280;13354;48.174;11.566;2022-11-13T02:41:56;96582.84;;;4.73;98.67
25420;BME280;13354;48.174;11.566;2022-11-13T02:44:22;96579.69;;;4.79;98.09
25420;BME280;13354;48.174;11.566;2022-11-13T02:46:47;96574.69;;;4.76;97.74
25420;BME280;13354;48.174;11.566;2022-11-13T02:49:12;96564.63;;;4.72;97.58
25420;BME280;13354;48.174;11.566;2022-11-13T02:51:38;96556.19;;;4.68;97.63
25420;BME280;13354;48.174;11.566;2022-11-13T02:54:03;96555.88;;;4.62;97.60
25420;BME280;13354;48.174;11.566;2022-11-13T02:56:28;96564.06;;;4.68;97.18
25420;BME280;13354;48.174;11.566;2022-11-13T02:58:54;96554.66;;;4.66;96.51
25420;BME280;13354;48.174;11.566;2022-11-13T03:01:19;96556.84;;;4.60;95.91
25420;BME280;13354;48.174;11.566;2022-11-13T03:03:45;96551.72;;;4.59;96.12
25420;BME280;13354;48.174;11.566;2022-11-13T03:06:10;96542.72;;;4.52;96.47
25420;BME280;13354;48.174;11.566;2022-11-13T03:08:35;96548.53;;;4.46;97.17
25420;BME280;13354;48.174;11.566;2022-11-13T03:11:06;96545.34;;;4.42;97.49
25420;BME280;13354;48.174;11.566;2022-11-13T03:13:31;96540.09;;;4.42;97.58
25420;BME280;13354;48.174;11.566;2022-11-13T03:16:05;96536.25;;;4.56;97.90
25420;BME280;13354;48.174;11.566;2022-11-13T03:18:30;96535.97;;;4.49;97.03
25420;BME280;13354;48.174;11.566;2022-11-13T03:20:55;96535.53;;;4.44;97.08
25420;BME280;13354;48.174;11.566;2022-11-13T03:23:21;96537.59;;;4.41;96.57
25420;BME280;13354;48.174;11.566;2022-11-13T03:25:46;96535.09;;;4.39;96.57
25420;BME280;13354;48.174;11.566;2022-11-13T03:28:12;96539.22;;;4.32;97.44
25420;BME280;13354;48.174;11.566;2022-11-13T03:30:37;96533.16;;;4.31;97.89
25420;BME280;13354;48.174;11.566;2022-11-13T03:33:02;96535.50;;;4.34;98.32
25420;BME280;13354;48.174;11.566;2022-11-13T03:35:27;96522.69;;;4.41;98.33
25420;BME280;13354;48.174;11.566;2022-11-13T03:37:53;96517.63;;;4.49;98.26
25420;BME280;13354;48.174;11.566;2022-11-13T03:40:18;96519.78;;;4.34;97.80
25420;BME280;13354;48.174;11.566;2022-11-13T03:42:43;96518.00;;;4.45;97.10
25420;BME280;13354;48.174;11.566;2022-11-13T03:45:09;96508.53;;;4.53;95.67
25420;BME280;13354;48.174;11.566;2022-11-13T03:47:34;96505.03;;;4.43;95.40
25420;BME280;13354;48.174;11.566;2022-11-13T03:50:00;96498.50;;;4.38;94.92
25420;BME280;13354;48.174;11.566;2022-11-13T03:52:25;96496.72;;;4.28;94.44
25420;BME280;13354;48.174;11.566;2022-11-13T03:54:50;96497.78;;;4.16;93.68
25420;BME280;13354;48.174;11.566;2022-11-13T03:57:15;96492.91;;;4.11;93.82
25420;BME280;13354;48.174;11.566;2022-11-13T03:59:41;96495.28;;;4.15;93.93
25420;BME280;13354;48.174;11.566;2022-11-13T04:02:06;96498.03;;;4.13;94.12
25420;BME280;13354;48.174;11.566;2022-11-13T04:04:31;96491.56;;;4.17;94.24
25420;BME280;13354;48.174;11.566;2022-11-13T04:06:57;96486.31;;;4.17;93.75
25420;BME280;13354;48.174;11.566;2022-11-13T04:09:22;96489.25;;;4.24;93.90
25420;BME280;13354;48.174;11.566;2022-11-13T04:11:47;96487.28;;;4.16;93.97
25420;BME280;13354;48.174;11.566;2022-11-13T04:14:13;96487.66;;;4.11;94.27
25420;BME280;13354;48.174;11.566;2022-11-13T04:16:38;96484.06;;;4.03;94.77
25420;BME280;13354;48.174;11.566;2022-11-13T04:19:03;96474.72;;;4.10;95.58
25420;BME280;13354;48.174;11.566;2022-11-13T04:21:29;96474.81;;;4.08;95.54
25420;BME280;13354;48.174;11.566;2022-11-13T04:23:54;96476.63;;;4.08;95.58
25420;BME280;13354;48.174;11.566;2022-11-13T04:26:19;96477.31;;;4.10;95.37
25420;BME280;13354;48.174;11.566;2022-11-13T04:28:45;96476.63;;;4.08;95.48
25420;BME280;13354;48.174;11.566;2022-11-13T04:31:10;96484.06;;;4.03;95.28
25420;BME280;13354;48.174;11.566;2022-11-13T04:33:35;96477.44;;;4.08;94.96
25420;BME280;13354;48.174;11.566;2022-11-13T04:36:00;96470.66;;;3.96;95.36
25420;BME280;13354;48.174;11.566;2022-11-13T04:38:26;96471.72;;;3.94;95.84
25420;BME280;13354;48.174;11.566;2022-11-13T04:40:51;96468.03;;;3.96;95.80
25420;BME280;13354;48.174;11.566;2022-11-13T04:43:36;96471.31;;;3.88;95.84
25420;BME280;13354;48.174;11.566;2022-11-13T04:46:02;96463.34;;;4.00;95.48
25420;BME280;13354;48.174;11.566;2022-11-13T04:48:27;96457.06;;;3.81;95.16
25420;BME280;13354;48.174;11.566;2022-11-13T04:50:52;96454.63;;;3.90;95.13
25420;BME280;13354;48.174;11.566;2022-11-13T04:53:17;96456.91;;;3.73;95.78
25420;BME280;13354;48.174;11.566;2022-11-13T04:55:43;96452.06;;;3.69;95.80
25420;BME280;13354;48.174;11.566;2022-11-13T04:58:08;96449.94;;;3.83;95.67
25420;BME280;13354;48.174;11.566;2022-11-13T05:00:33;96442.97;;;3.73;94.69
25420;BME280;13354;48.174;11.566;2022-11-13T05:02:58;96443.81;;;3.73;94.81
25420;BME280;13354;48.174;11.566;2022-11-13T05:05:24;96450.13;;;3.71;95.10
25420;BME280;13354;48.174;11.566;2022-11-13T05:07:49;96437.50;;;3.76;94.79
25420;BME280;13354;48.174;11.566;2022-11-13T05:10:14;96443.44;;;3.57;95.02
25420;BME280;13354;48.174;11.566;2022-11-13T05:12:40;96443.88;;;3.62;95.14
25420;BME280;13354;48.174;11.566;2022-11-13T05:15:05;96443.88;;;3.62;95.45
25420;BME280;13354;48.174;11.566;2022-11-13T05:17:31;96451.28;;;3.57;95.19
25420;BME280;13354;48.174;11.566;2022-11-13T05:19:56;96448.00;;;3.55;95.58
25420;BME280;13354;48.174;11.566;2022-11-13T05:22:22;96442.34;;;3.59;95.42
25420;BME280;13354;48.174;11.566;2022-11-13T05:24:47;96440.00;;;3.56;95.32
25420;BME280;13354;48.174;11.566;2022-11-13T05:27:12;96427.38;;;3.71;95.25
25420;BME280;13354;48.174;11.566;2022-11-13T05:29:38;96426.69;;;3.69;94.64
25420;BME280;13354;48.174;11.566;2022-11-13T05:32:03;96428.66;;;3.77;93.96
25420;BME280;13354;48.174;11.566;2022-11-13T05:34:28;96420.91;;;3.66;93.36
25420;BME280;13354;48.174;11.566;2022-11-13T05:36:53;96420.97;;;3.54;93.65
25420;BME280;13354;48.174;11.566;2022-11-13T05:39:19;96413.13;;;3.54;94.03
25420;BME280;13354;48.174;11.566;2022-11-13T05:41:44;96412.56;;;3.51;94.34
25420;BME280;13354;48.174;11.566;2022-11-13T05:44:09;96408.25;;;3.50;94.82
25420;BME280;13354;48.174;11.566;2022-11-13T05:46:35;96398.75;;;3.49;94.97
25420;BME280;13354;48.174;11.566;2022-11-13T05:49:01;96405.09;;;3.46;94.96
25420;BME280;13354;48.174;11.566;2022-11-13T05:51:29;96403.59;;;3.53;94.56
25420;BME280;13354;48.174;11.566;2022-11-13T05:53:55;96391.16;;;3.46;94.90
25420;BME280;13354;48.174;11.566;2022-11-13T05:56:23;96404.25;;;3.46;94.94
25420;BME280;13354;48.174;11.566;2022-11-13T05:58:53;96395.16;;;3.50;94.48
25420;BME280;13354;48.174;11.566;2022-11-13T06:01:34;96399.22;;;3.54;94.30
25420;BME280;13354;48.174;11.566;2022-11-13T06:04:01;96394.00;;;3.63;93.65
25420;BME280;13354;48.174;11.566;2022-11-13T06:06:30;96399.38;;;3.62;93.73
25420;BME280;13354;48.174;11.566;2022-11-13T06:08:58;96382.38;;;3.56;93.77
25420;BME280;13354;48.174;11.566;2022-11-13T06:11:26;96387.88;;;3.53;93.77
25420;BME280;13354;48.174;11.566;2022-11-13T06:13:52;96398.91;;;3.57;94.17
25420;BME280;13354;48.174;11.566;2022-11-13T06:16:24;96387.94;;;3.32;94.65
25420;BME280;13354;48.174;11.566;2022-11-13T06:18:53;96379.69;;;3.37;94.88
25420;BME280;13354;48.174;11.566;2022-11-13T06:21:21;96381.47;;;3.36;95.13
25420;BME280;13354;48.174;11.566;2022-11-13T06:23:47;96379.53;;;3.38;95.19
25420;BME280;13354;48.174;11.566;2022-11-13T06:26:24;96364.41;;;3.42;94.71
25420;BME280;13354;48.174;11.566;2022-11-13T06:28:50;96372.00;;;3.45;95.14
25420;BME280;13354;48.174;11.566;2022-11-13T06:31:26;96363.91;;;3.48;94.67
25420;BME280;13354;48.174;11.566;2022-11-13T06:33:52;96365.94;;;3.45;94.74
25420;BME280;13354;48.174;11.566;2022-11-13T06:36:20;96362.25;;;3.47;95.11
25420;BME280;13354;48.174;11.566;2022-11-13T06:38:46;96360.03;;;3.43;95.68
25420;BME280;13354;48.174;11.566;2022-11-13T06:41:16;96356.84;;;3.39;95.58
25420;BME280;13354;48.174;11.566;2022-11-13T06:43:42;96360.88;;;3.53;95.28
25420;BME280;13354;48.174;11.566;2022-11-13T06:46:13;96349.47;;;3.54;95.12
25420;BME280;13354;48.174;11.566;2022-11-13T06:48:39;96341.88;;;3.51;95.24
25420;BME280;13354;48.174;11.566;2022-11-13T06:51:06;96335.97;;;3.58;95.25
25420;BME280;13354;48.174;11.566;2022-11-13T06:53:32;96341.63;;;3.63;94.56
25420;BME280;13354;48.174;11.566;2022-11-13T06:55:58;96332.38;;;3.59;94.17
25420;BME280;13354;48.174;11.566;2022-11-13T06:58:24;96323.56;;;3.60;93.96
25420;BME280;13354;48.174;11.566;2022-11-13T07:00:50;96314.34;;;3.66;93.75
25420;BME280;13354;48.174;11.566;2022-11-13T07:03:21;96308.41;;;3.64;93.88
25420;BME280;13354;48.174;11.566;2022-11-13T07:05:47;96294.66;;;3.62;93.71
25420;BME280;13354;48.174;11.566;2022-11-13T07:08:13;96304.03;;;3.65;93.76
25420;BME280;13354;48.174;11.566;2022-11-13T07:10:39;96301.13;;;3.68;94.12
25420;BME280;13354;48.174;11.566;2022-11-13T07:13:05;96308.03;;;3.69;94.23
25420;BME280;13354;48.174;11.566;2022-11-13T07:15:37;96311.59;;;3.68;93.36
25420;BME280;13354;48.174;11.566;2022-11-13T07:18:04;96309.28;;;3.74;92.75
25420;BME280;13354;48.174;11.566;2022-11-13T07:20:30;96307.03;;;3.60;93.06
25420;BME280;13354;48.174;11.566;2022-11-13T07:22:57;96303.47;;;3.61;93.80
25420;BME280;13354;48.174;11.566;2022-11-13T07:25:24;96292.69;;;3.64;93.46
25420;BME280;13354;48.174;11.566;2022-11-13T07:27:50;96302.78;;;3.69;93.25
25420;BME280;13354;48.174;11.566;2022-11-13T07:30:19;96293.81;;;3.61;93.36
25420;BME280;13354;48.174;11.566;2022-11-13T07:32:48;96284.31;;;3.70;93.94
25420;BME280;13354;48.174;11.566;2022-11-13T07:35:13;96290.69;;;3.77;94.49
25420;BME280;13354;48.174;11.566;2022-11-13T07:37:41;96297.31;;;3.81;94.96
25420;BME280;13354;48.174;11.566;2022-11-13T07:40:24;96298.16;;;3.92;96.01
25420;BME280;13354;48.174;11.566;2022-11-13T07:42:59;96315.66;;;4.01;96.61
25420;BME280;13354;48.174;11.566;2022-11-13T07:45:26;96319.81;;;4.03;96.43
25420;BME280;13354;48.174;11.566;2022-11-13T07:47:58;96333.19;;;4.10;95.69
25420;BME280;13354;48.174;11.566;2022-11-13T07:50:26;96335.38;;;4.05;94.45
25420;BME280;13354;48.174;11.566;2022-11-13T07:52:59;96349.06;;;4.18;93.13
25420;BME280;13354;48.174;11.566;2022-11-13T07:55:26;96347.16;;;4.20;93.06
25420;BME280;13354;48.174;11.566;2022-11-13T07:57:58;96343.28;;;4.24;92.95
25420;BME280;13354;48.174;11.566;2022-11-13T08:00:25;96344.13;;;4.25;93.72
25420;BME280;13354;48.174;11.566;2022-11-13T08:03:14;96339.84;;;4.33;92.90
25420;BME280;13354;48.174;11.566;2022-11-13T08:05:41;96340.41;;;4.37;92.16
25420;BME280;13354;48.174;11.566;2022-11-13T08:08:07;96351.28;;;4.32;92.13
25420;BME280;13354;48.174;11.566;2022-11-13T08:10:33;96346.47;;;4.28;92.63
25420;BME280;13354;48.174;11.566;2022-11-13T08:13:17;96339.16;;;4.22;93.40
25420;BME280;13354;48.174;11.566;2022-11-13T08:15:45;96318.19;;;4.31;94.01
25420;BME280;13354;48.174;11.566;2022-11-13T08:18:10;96322.06;;;4.27;94.57
25420;BME280;13354;48.174;11.566;2022-11-13T08:20:36;96319.31;;;4.39;94.08
25420;BME280;13354;48.174;11.566;2022-11-13T08:23:03;96314.06;;;4.39;93.27
25420;BME280;13354;48.174;11.566;2022-11-13T08:25:30;96312.13;;;4.41;93.39
25420;BME280;13354;48.174;11.566;2022-11-13T08:27:56;96293.22;;;4.47;93.48
25420;BME280;13354;48.174;11.566;2022-11-13T08:30:23;96298.31;;;4.48;93.68
25420;BME280;13354;48.174;11.566;2022-11-13T08:32:49;96287.81;;;4.58;93.93
25420;BME280;13354;48.174;11.566;2022-11-13T08:35:16;96288.91;;;4.65;94.43
25420;BME280;13354;48.174;11.566;2022-11-13T08:37:41;96294.16;;;4.65;94.33
25420;BME280;13354;48.174;11.566;2022-11-13T08:40:07;96298.72;;;4.63;94.29
25420;BME280;13354;48.174;11.566;2022-11-13T08:42:33;96296.63;;;4.67;93.95
25420;BME280;13354;48.174;11.566;2022-11-13T08:45:05;96297.59;;;4.66;92.92
25420;BME280;13354;48.174;11.566;2022-11-13T08:47:31;96301.75;;;4.68;92.43
25420;BME280;13354;48.174;11.566;2022-11-13T08:49:56;96299.25;;;4.76;91.88
25420;BME280;13354;48.174;11.566;2022-11-13T08:52:22;96304.78;;;4.83;92.00
25420;BME280;13354;48.174;11.566;2022-11-13T08:54:50;96301.19;;;4.74;92.25
25420;BME280;13354;48.174;11.566;2022-11-13T08:57:16;96296.91;;;4.83;92.63
25420;BME280;13354;48.174;11.566;2022-11-13T08:59:41;96288.75;;;4.86;92.96
25420;BME280;13354;48.174;11.566;2022-11-13T09:02:11;96283.34;;;4.88;93.88
25420;BME280;13354;48.174;11.566;2022-11-13T09:04:38;96280.22;;;5.21;97.11
25420;BME280;13354;48.174;11.566;2022-11-13T09:07:03;96282.88;;;5.49;99.25
25420;BME280;13354;48.174;11.566;2022-11-13T09:09:32;96283.00;;;5.75;99.25
25420;BME280;13354;48.174;11.566;2022-11-13T09:11:59;96280.75;;;5.80;99.11
25420;BME280;13354;48.174;11.566;2022-11-13T09:14:24;96290.72;;;5.76;94.37
25420;BME280;13354;48.174;11.566;2022-11-13T09:16:52;96270.00;;;5.73;93.13
25420;BME280;13354;48.174;11.566;2022-11-13T09:19:17;96275.75;;;5.87;94.27
25420;BME280;13354;48.174;11.566;2022-11-13T09:21:46;96286.38;;;5.67;91.21
25420;BME280;13354;48.174;11.566;2022-11-13T09:24:11;96281.44;;;5.54;90.57
25420;BME280;13354;48.174;11.566;2022-11-13T09:26:36;96284.34;;;5.51;90.44
25420;BME280;13354;48.174;11.566;2022-11-13T09:29:02;96298.38;;;5.42;90.88
25420;BME280;13354;48.174;11.566;2022-11-13T09:31:28;96286.06;;;5.43;90.56
25420;BME280;13354;48.174;11.566;2022-11-13T09:33:55;96282.88;;;5.49;91.26
25420;BME280;13354;48.174;11.566;2022-11-13T09:36:24;96280.91;;;5.51;90.66
25420;BME280;13354;48.174;11.566;2022-11-13T09:38:50;96277.72;;;5.57;90.34
25420;BME280;13354;48.174;11.566;2022-11-13T09:41:23;96266.97;;;5.50;89.90
25420;BME280;13354;48.174;11.566;2022-11-13T09:43:52;96260.47;;;5.72;89.09
25420;BME280;13354;48.174;11.566;2022-11-13T09:46:46;96267.31;;;5.83;87.52
25420;BME280;13354;48.174;11.566;2022-11-13T09:49:17;96257.47;;;5.95;86.49
25420;BME280;13354;48.174;11.566;2022-11-13T09:51:55;96246.66;;;5.98;86.07
25420;BME280;13354;48.174;11.566;2022-11-13T09:54:22;96241.47;;;6.06;86.16
25420;BME280;13354;48.174;11.566;2022-11-13T09:59:46;96239.78;;;5.87;84.48
25420;BME280;13354;48.174;11.566;2022-11-13T10:02:21;96233.69;;;5.87;84.98
25420;BME280;13354;48.174;11.566;2022-11-13T10:05:05;96236.59;;;5.93;85.26
25420;BME280;13354;48.174;11.566;2022-11-13T10:08:05;96225.28;;;5.83;85.89
25420;BME280;13354;48.174;11.566;2022-11-13T10:11:10;96242.03;;;5.82;86.20
25420;BME280;13354;48.174;11.566;2022-11-13T10:16:21;96236.66;;;5.56;88.12
25420;BME280;13354;48.174;11.566;2022-11-13T10:18:52;96244.22;;;5.59;89.18
25420;BME280;13354;48.174;11.566;2022-11-13T10:23:55;96223.78;;;5.80;88.81
25420;BME280;13354;48.174;11.566;2022-11-13T10:26:26;96220.47;;;5.78;89.45
25420;BME280;13354;48.174;11.566;2022-11-13T10:29:08;96209.59;;;5.91;88.46
25420;BME280;13354;48.174;11.566;2022-11-13T10:31:46;96207.06;;;6.17;87.59
25420;BME280;13354;48.174;11.566;2022-11-13T10:34:13;96206.00;;;6.72;85.44
25420;BME280;13354;48.174;11.566;2022-11-13T10:39:26;96194.56;;;7.23;82.60
25420;BME280;13354;48.174;11.566;2022-11-13T10:41:53;96190.88;;;7.50;80.75
25420;BME280;13354;48.174;11.566;2022-11-13T10:44:28;96200.44;;;7.52;79.70
25420;BME280;13354;48.174;11.566;2022-11-13T10:47:14;96195.63;;;7.39;79.71
25420;BME280;13354;48.174;11.566;2022-11-13T10:49:40;96184.34;;;7.20;79.18
25420;BME280;13354;48.174;11.566;2022-11-13T10:52:26;96170.59;;;7.43;78.31
25420;BME280;13354;48.174;11.566;2022-11-13T10:57:36;96157.44;;;7.43;78.88
25420;BME280;13354;48.174;11.566;2022-11-13T11:02:52;96153.53;;;7.71;77.87
25420;BME280;13354;48.174;11.566;2022-11-13T11:05:20;96145.81;;;7.86;77.41
25420;BME280;13354;48.174;11.566;2022-11-13T11:07:46;96143.84;;;8.05;76.23
25420;BME280;13354;48.174;11.566;2022-11-13T11:15:25;96138.91;;;8.10;76.91
25420;BME280;13354;48.174;11.566;2022-11-13T11:17:56;96138.56;;;8.21;75.97
25420;BME280;13354;48.174;11.566;2022-11-13T11:20:49;96127.22;;;8.29;75.82
25420;BME280;13354;48.174;11.566;2022-11-13T11:23:25;96122.75;;;8.45;76.17
25420;BME280;13354;48.174;11.566;2022-11-13T11:25:59;96123.34;;;8.72;75.96
25420;BME280;13354;48.174;11.566;2022-11-13T11:28:32;96114.78;;;9.17;75.39
25420;BME280;13354;48.174;11.566;2022-11-13T11:31:24;96103.25;;;9.41;73.85
25420;BME280;13354;48.174;11.566;2022-11-13T11:34:12;96100.09;;;9.69;72.94
25420;BME280;13354;48.174;11.566;2022-11-13T11:36:51;96109.34;;;9.73;72.01
25420;BME280;13354;48.174;11.566;2022-11-13T11:39:34;96103.50;;;9.78;72.43
25420;BME280;13354;48.174;11.566;2022-11-13T11:44:56;96090.34;;;9.70;71.43
25420;BME280;13354;48.174;11.566;2022-11-13T11:47:26;96085.13;;;9.61;71.52
25420;BME280;13354;48.174;11.566;2022-11-13T11:49:53;96074.13;;;9.73;72.04
25420;BME280;13354;48.174;11.566;2022-11-13T11:55:25;96067.78;;;10.20;71.11
25420;BME280;13354;48.174;11.566;2022-11-13T11:58:15;96057.31;;;10.26;70.29
25420;BME280;13354;48.174;11.566;2022-11-13T12:00:49;96053.50;;;10.44;69.08
25420;BME280;13354;48.174;11.566;2022-11-13T12:04:04;96051.13;;;10.63;69.82
25420;BME280;13354;48.174;11.566;2022-11-13T12:11:50;96060.13;;;11.50;65.98
25420;BME280;13354;48.174;11.566;2022-11-13T12:17:13;96059.91;;;11.88;65.10
25420;BME280;13354;48.174;11.566;2022-11-13T12:19:53;96052.75;;;12.09;64.67
25420;BME280;13354;48.174;11.566;2022-11-13T12:25:17;96043.28;;;12.28;63.73
25420;BME280;13354;48.174;11.566;2022-11-13T12:30:40;96024.09;;;13.02;63.05
25420;BME280;13354;48.174;11.566;2022-11-13T12:33:28;96018.78;;;13.09;62.12
25420;BME280;13354;48.174;11.566;2022-11-13T12:35:59;96006.00;;;13.33;61.31
25420;BME280;13354;48.174;11.566;2022-11-13T12:46:39;96000.34;;;13.69;59.87
25420;BME280;13354;48.174;11.566;2022-11-13T12:51:57;95987.88;;;13.63;59.96
25420;BME280;13354;48.174;11.566;2022-11-13T12:54:34;95996.19;;;13.40;60.85
25420;BME280;13354;48.174;11.566;2022-11-13T12:59:41;95993.53;;;13.40;60.65
25420;BME280;13354;48.174;11.566;2022-11-13T13:05:04;95992.53;;;13.47;60.84
25420;BME280;13354;48.174;11.566;2022-11-13T13:10:21;95982.09;;;13.46;60.69
25420;BME280;13354;48.174;11.566;2022-11-13T13:15:32;95974.97;;;13.60;60.46
25420;BME280;13354;48.174;11.566;2022-11-13T13:18:11;95958.59;;;13.63;60.59
25420;BME280;13354;48.174;11.566;2022-11-13T13:21:02;95948.97;;;13.75;60.28
25420;BME280;13354;48.174;11.566;2022-11-13T13:23:27;95940.16;;;13.88;60.26
25420;BME280;13354;48.174;11.566;2022-11-13T13:28:38;95943.44;;;13.90;60.05
25420;BME280;13354;48.174;11.566;2022-11-13T13:34:15;95954.50;;;13.80;60.60
25420;BME280;13354;48.174;11.566;2022-11-13T13:37:03;95948.16;;;13.74;61.06
25420;BME280;13354;48.174;11.566;2022-11-13T13:40:15;95939.56;;;13.79;60.57
25420;BME280;13354;48.174;11.566;2022-11-13T13:48:09;95924.03;;;13.63;61.92
25420;BME280;13354;48.174;11.566;2022-11-13T13:50:40;95922.56;;;13.47;62.26
25420;BME280;13354;48.174;11.566;2022-11-13T13:53:08;95916.44;;;13.46;62.78
25420;BME280;13354;48.174;11.566;2022-11-13T13:55:38;95913.97;;;13.38;62.99
25420;BME280;13354;48.174;11.566;2022-11-13T13:58:12;95907.00;;;13.44;62.36
25420;BME280;13354;48.174;11.566;2022-11-13T14:00:38;95901.91;;;13.42;62.58
25420;BME280;13354;48.174;11.566;2022-11-13T14:03:17;95890.66;;;13.27;63.50
25420;BME280;13354;48.174;11.566;2022-11-13T14:05:42;95898.41;;;13.22;63.77
25420;BME280;13354;48.174;11.566;2022-11-13T14:08:19;95895.09;;;13.13;64.17
25420;BME280;13354;48.174;11.566;2022-11-13T14:10:44;95894.69;;;13.16;64.21
25420;BME280;13354;48.174;11.566;2022-11-13T14:13:25;95901.03;;;13.09;64.87
25420;BME280;13354;48.174;11.566;2022-11-13T14:16:04;95899.34;;;12.88;65.58
25420;BME280;13354;48.174;11.566;2022-11-13T14:18:30;95900.91;;;12.69;66.28
25420;BME280;13354;48.174;11.566;2022-11-13T14:20:58;95901.50;;;12.57;67.09
25420;BME280;13354;48.174;11.566;2022-11-13T14:23:28;95906.53;;;12.39;67.89